createdAt,value
2018-12-05T00:02:13.777Z,13.80
2018-12-05T00:04:42.998Z,12.15
2018-12-05T00:07:12.350Z,15.10
2018-12-05T00:09:41.648Z,13.90
2018-12-05T00:12:10.898Z,13.78
2018-12-05T00:14:40.274Z,13.65
2018-12-05T00:17:09.553Z,10.15
2018-12-05T00:19:38.826Z,15.72
2018-12-05T00:22:08.143Z,15.30
2018-12-05T00:24:37.427Z,16.25
2018-12-05T00:27:06.677Z,16.48
2018-12-05T00:29:35.962Z,19.42
2018-12-05T00:32:05.218Z,17.50
2018-12-05T00:34:34.495Z,20.35
2018-12-05T00:37:03.782Z,17.90
2018-12-05T00:39:33.030Z,19.37
2018-12-05T00:42:02.293Z,19.87
2018-12-05T00:44:31.550Z,19.40
2018-12-05T00:47:00.833Z,19.77
2018-12-05T00:49:30.374Z,16.23
2018-12-05T00:51:59.721Z,20.88
2018-12-05T00:54:28.962Z,20.60
2018-12-05T00:56:58.253Z,19.05
2018-12-05T00:59:27.534Z,20.50
2018-12-05T01:01:56.785Z,21.30
2018-12-05T01:04:26.106Z,17.73
2018-12-05T01:06:55.438Z,14.30
2018-12-05T01:09:24.715Z,14.83
2018-12-05T01:11:54.372Z,17.32
2018-12-05T01:14:23.628Z,13.75
2018-12-05T01:16:52.877Z,16.65
2018-12-05T01:19:22.113Z,16.37
2018-12-05T01:21:51.376Z,15.00
2018-12-05T01:24:20.858Z,12.98
2018-12-05T01:26:50.216Z,15.68
2018-12-05T01:29:19.765Z,15.18
2018-12-05T01:31:49.012Z,15.13
2018-12-05T01:34:18.265Z,14.80
2018-12-05T01:36:47.518Z,12.98
2018-12-05T01:39:16.885Z,14.00
2018-12-05T01:41:46.126Z,12.37
2018-12-05T01:44:15.385Z,17.15
2018-12-05T01:46:44.753Z,15.05
2018-12-05T01:49:14.028Z,14.70
2018-12-05T01:51:43.279Z,17.67
2018-12-05T01:54:12.544Z,17.20
2018-12-05T01:56:41.819Z,19.15
2018-12-05T01:59:11.393Z,18.82
2018-12-05T02:01:40.753Z,19.00
2018-12-05T02:04:09.988Z,19.48
2018-12-05T02:06:39.248Z,18.23
2018-12-05T02:09:09.303Z,16.12
2018-12-05T02:11:38.766Z,18.82
2018-12-05T02:14:08.012Z,18.90
2018-12-05T02:16:37.359Z,16.27
2018-12-05T02:19:06.608Z,19.40
2018-12-05T02:21:35.866Z,17.85
2018-12-05T02:24:05.165Z,16.23
2018-12-05T02:26:34.430Z,15.98
2018-12-05T02:29:03.694Z,18.45
2018-12-05T02:31:33.904Z,15.15
2018-12-05T02:34:03.205Z,14.68
2018-12-05T02:36:32.445Z,15.63
2018-12-05T02:39:01.705Z,17.05
2018-12-05T02:41:30.971Z,15.85
2018-12-05T02:44:00.207Z,20.68
2018-12-05T02:46:29.462Z,15.03
2018-12-05T02:48:58.753Z,15.90
2018-12-05T02:51:28.001Z,15.85
2018-12-05T02:53:57.334Z,16.07
2018-12-05T02:56:26.581Z,17.65
2018-12-05T02:58:55.844Z,19.02
2018-12-05T03:01:25.122Z,22.70
2018-12-05T03:03:54.405Z,18.10
2018-12-05T03:06:23.669Z,21.52
2018-12-05T03:08:52.952Z,21.55
2018-12-05T03:11:22.400Z,22.07
2018-12-05T03:13:51.777Z,18.45
2018-12-05T03:16:21.038Z,20.75
2018-12-05T03:18:50.313Z,19.12
2018-12-05T03:21:19.646Z,21.30
2018-12-05T03:23:48.918Z,20.77
2018-12-05T03:26:18.256Z,17.10
2018-12-05T03:28:47.570Z,19.17
2018-12-05T03:31:16.836Z,18.10
2018-12-05T03:33:46.134Z,17.62
2018-12-05T03:36:15.389Z,17.17
2018-12-05T03:38:44.653Z,17.23
2018-12-05T03:41:13.913Z,17.60
2018-12-05T03:43:43.229Z,18.17
2018-12-05T03:46:12.542Z,19.57
2018-12-05T03:48:41.790Z,17.85
2018-12-05T03:51:11.103Z,19.35
2018-12-05T03:53:40.462Z,17.42
2018-12-05T03:58:50.833Z,19.90
2018-12-05T04:01:20.121Z,16.82
2018-12-05T04:03:49.368Z,19.62
2018-12-05T04:06:18.636Z,19.67
2018-12-05T04:08:47.899Z,21.12
2018-12-05T04:11:17.173Z,19.35
2018-12-05T04:13:46.471Z,18.90
2018-12-05T04:16:15.744Z,20.68
2018-12-05T04:18:45.016Z,21.00
2018-12-05T04:21:14.258Z,23.50
2018-12-05T04:23:43.502Z,22.42
2018-12-05T04:26:12.755Z,21.45
2018-12-05T04:28:42.012Z,20.48
2018-12-05T04:31:11.266Z,20.75
2018-12-05T04:33:40.520Z,25.23
2018-12-05T04:36:09.778Z,30.50
2018-12-05T04:38:39.153Z,21.60
2018-12-05T04:41:08.434Z,22.32
2018-12-05T04:43:37.714Z,16.70
2018-12-05T04:46:06.981Z,20.88
2018-12-05T04:48:36.268Z,20.85
2018-12-05T04:51:05.522Z,21.25
2018-12-05T04:53:34.860Z,18.95
2018-12-05T04:56:04.295Z,18.20
2018-12-05T04:58:33.646Z,17.98
2018-12-05T05:01:02.891Z,16.25
2018-12-05T05:03:32.166Z,16.02
2018-12-05T05:06:01.418Z,17.00
2018-12-05T05:08:30.744Z,17.60
2018-12-05T05:11:00.016Z,14.03
2018-12-05T05:13:29.379Z,15.55
2018-12-05T05:15:58.669Z,15.75
2018-12-05T05:18:27.909Z,16.15
2018-12-05T05:20:57.277Z,15.65
2018-12-05T05:23:26.591Z,14.43
2018-12-05T05:25:55.931Z,15.70
2018-12-05T05:28:25.213Z,16.93
2018-12-05T05:30:54.478Z,16.65
2018-12-05T05:33:23.719Z,19.82
2018-12-05T05:35:52.994Z,18.73
2018-12-05T05:38:22.269Z,18.75
2018-12-05T05:40:51.525Z,18.40
2018-12-05T05:43:20.784Z,17.73
2018-12-05T05:45:50.221Z,16.37
2018-12-05T05:48:19.473Z,17.20
2018-12-05T05:50:48.753Z,17.45
2018-12-05T05:53:18.073Z,16.52
2018-12-05T05:55:53.729Z,22.32
2018-12-05T05:58:22.981Z,18.57
2018-12-05T06:00:52.350Z,19.80
2018-12-05T06:03:21.680Z,16.70
2018-12-05T06:05:50.918Z,17.55
2018-12-05T06:08:20.200Z,16.93
2018-12-05T06:10:49.456Z,17.75
2018-12-05T06:13:18.717Z,16.35
2018-12-05T06:15:47.992Z,15.45
2018-12-05T06:18:17.247Z,13.78
2018-12-05T06:20:46.582Z,16.90
2018-12-05T06:23:16.001Z,21.68
2018-12-05T06:25:45.258Z,18.80
2018-12-05T06:28:14.534Z,19.12
2018-12-05T06:30:43.825Z,21.68
2018-12-05T06:33:13.180Z,18.20
2018-12-05T06:35:42.484Z,19.98
2018-12-05T06:38:11.751Z,18.73
2018-12-05T06:40:41.103Z,15.50
2018-12-05T06:43:10.325Z,18.50
2018-12-05T06:45:39.613Z,16.12
2018-12-05T06:48:08.941Z,16.12
2018-12-05T06:50:38.234Z,13.72
2018-12-05T06:53:07.553Z,17.25
2018-12-05T06:55:39.314Z,18.98
2018-12-05T06:58:08.239Z,18.85
2018-12-05T07:00:37.550Z,19.00
2018-12-05T07:03:06.853Z,16.52
2018-12-05T07:05:36.161Z,16.67
2018-12-05T07:08:05.445Z,15.40
2018-12-05T07:10:34.731Z,13.20
2018-12-05T07:13:04.983Z,16.90
2018-12-05T07:15:34.392Z,14.38
2018-12-05T07:18:03.626Z,16.42
2018-12-05T07:20:32.943Z,16.62
2018-12-05T07:23:02.181Z,16.37
2018-12-05T07:25:31.426Z,17.62
2018-12-05T07:28:00.709Z,15.30
2018-12-05T07:30:29.993Z,17.25
2018-12-05T07:32:59.258Z,12.75
2018-12-05T07:35:28.710Z,16.45
2018-12-05T07:37:58.061Z,13.95
2018-12-05T07:40:27.347Z,14.38
2018-12-05T07:42:56.606Z,16.27
2018-12-05T07:45:25.877Z,11.38
2018-12-05T07:47:55.257Z,12.35
2018-12-05T07:50:24.536Z,11.75
2018-12-05T07:52:53.825Z,16.50
2018-12-05T07:55:23.109Z,13.22
2018-12-05T07:57:52.394Z,11.33
2018-12-05T08:00:21.957Z,13.95
2018-12-05T08:02:51.240Z,12.68
2018-12-05T08:05:20.577Z,13.18
2018-12-05T08:07:49.838Z,15.23
2018-12-05T08:10:19.079Z,14.75
2018-12-05T08:12:48.363Z,17.73
2018-12-05T08:15:17.609Z,14.38
2018-12-05T08:17:46.920Z,15.05
2018-12-05T08:20:16.220Z,14.13
2018-12-05T08:22:45.518Z,11.78
2018-12-05T08:25:14.775Z,16.57
2018-12-05T08:27:44.073Z,12.90
2018-12-05T08:30:13.342Z,13.38
2018-12-05T08:32:42.654Z,11.95
2018-12-05T08:35:11.993Z,12.43
2018-12-05T08:37:41.241Z,15.48
2018-12-05T08:40:10.663Z,11.57
2018-12-05T08:42:39.969Z,9.85
2018-12-05T08:45:09.318Z,9.90
2018-12-05T08:47:38.579Z,10.15
2018-12-05T08:50:07.860Z,10.63
2018-12-05T08:52:37.082Z,11.57
2018-12-05T08:55:06.825Z,9.28
2018-12-05T08:57:36.082Z,9.40
2018-12-05T09:00:06.722Z,9.60
2018-12-05T09:02:36.011Z,10.72
2018-12-05T09:05:05.777Z,11.88
2018-12-05T09:07:35.017Z,12.43
2018-12-05T09:10:04.729Z,8.70
2018-12-05T09:12:34.046Z,11.57
2018-12-05T09:15:03.315Z,9.95
2018-12-05T09:17:32.578Z,8.83
2018-12-05T09:20:01.814Z,10.75
2018-12-05T09:22:31.047Z,9.65
2018-12-05T09:25:00.359Z,8.25
2018-12-05T09:27:29.590Z,9.30
2018-12-05T09:29:58.842Z,7.62
2018-12-05T09:32:28.129Z,6.33
2018-12-05T09:34:57.385Z,10.23
2018-12-05T09:37:26.635Z,7.75
2018-12-05T09:39:55.878Z,6.42
2018-12-05T09:42:25.105Z,7.87
2018-12-05T09:44:54.350Z,5.97
2018-12-05T09:47:23.692Z,6.80
2018-12-05T09:49:52.938Z,5.58
2018-12-05T09:52:22.321Z,5.85
2018-12-05T09:54:51.567Z,6.45
2018-12-05T09:57:20.822Z,5.78
2018-12-05T09:59:50.065Z,5.10
2018-12-05T10:02:19.314Z,7.45
2018-12-05T10:04:48.646Z,8.68
2018-12-05T10:07:17.951Z,4.75
2018-12-05T10:09:47.195Z,4.22
2018-12-05T10:12:16.534Z,5.70
2018-12-05T10:14:45.860Z,6.03
2018-12-05T10:17:15.144Z,5.25
2018-12-05T10:19:44.554Z,4.42
2018-12-05T10:22:13.753Z,4.47
2018-12-05T10:24:42.990Z,5.15
2018-12-05T10:27:12.258Z,4.37
2018-12-05T10:29:41.472Z,5.65
2018-12-05T10:32:10.701Z,6.62
2018-12-05T10:34:39.945Z,5.92
2018-12-05T10:37:09.156Z,7.90
2018-12-05T10:39:38.475Z,6.25
2018-12-05T10:42:07.901Z,4.80
2018-12-05T10:44:37.270Z,6.28
2018-12-05T10:47:06.549Z,6.35
2018-12-05T10:49:35.785Z,5.45
2018-12-05T10:52:05.058Z,6.20
2018-12-05T10:54:34.324Z,4.15
2018-12-05T10:57:03.567Z,4.97
2018-12-05T10:59:33.637Z,4.90
2018-12-05T11:03:07.026Z,4.87
2018-12-05T11:05:41.738Z,5.92
2018-12-05T11:08:16.374Z,5.37
2018-12-05T11:10:50.882Z,5.42
2018-12-05T11:13:25.456Z,7.60
2018-12-05T11:15:59.985Z,5.83
2018-12-05T11:18:34.586Z,5.42
2018-12-05T11:21:09.041Z,6.67
2018-12-05T11:23:43.662Z,6.42
2018-12-05T11:26:17.798Z,4.78
2018-12-05T11:28:47.159Z,6.00
2018-12-05T11:31:16.492Z,5.25
2018-12-05T11:33:45.723Z,6.17
2018-12-05T11:36:15.045Z,4.75
2018-12-05T11:38:44.337Z,5.00
2018-12-05T11:41:13.578Z,5.62
2018-12-05T11:43:42.949Z,5.35
2018-12-05T11:46:12.211Z,5.72
2018-12-05T11:48:41.463Z,5.80
2018-12-05T11:51:10.736Z,4.33
2018-12-05T11:53:40.013Z,6.20
2018-12-05T11:56:09.290Z,4.92
2018-12-05T11:58:38.572Z,9.63
2018-12-05T12:01:08.097Z,6.00
2018-12-05T12:03:37.325Z,4.70
2018-12-05T12:06:06.768Z,4.80
2018-12-05T12:08:36.024Z,4.12
2018-12-05T12:11:05.551Z,4.45
2018-12-05T12:13:34.869Z,4.67
2018-12-05T12:16:04.494Z,3.95
2018-12-05T12:18:33.734Z,4.90
2018-12-05T12:21:03.046Z,5.30
2018-12-05T12:23:32.381Z,5.05
2018-12-05T12:26:01.654Z,4.78
2018-12-05T12:28:30.910Z,4.60
2018-12-05T12:31:00.217Z,5.05
2018-12-05T12:33:29.454Z,5.10
2018-12-05T12:35:58.877Z,5.87
2018-12-05T12:38:28.123Z,7.00
2018-12-05T12:40:57.381Z,5.10
2018-12-05T12:43:26.624Z,5.85
2018-12-05T12:45:55.862Z,5.70
2018-12-05T12:48:25.136Z,4.65
2018-12-05T12:50:54.433Z,5.37
2018-12-05T12:53:23.690Z,5.10
2018-12-05T12:55:53.049Z,5.90
2018-12-05T12:58:22.462Z,5.50
2018-12-05T13:00:51.703Z,5.95
2018-12-05T13:03:21.241Z,5.33
2018-12-05T13:05:50.572Z,7.72
2018-12-05T13:08:19.949Z,4.90
2018-12-05T13:10:49.185Z,7.55
2018-12-05T13:13:18.442Z,5.17
2018-12-05T13:15:47.662Z,5.47
2018-12-05T13:18:16.919Z,6.55
2018-12-05T13:20:46.141Z,6.15
2018-12-05T13:23:15.397Z,7.53
2018-12-05T13:25:44.628Z,5.20
2018-12-05T13:28:13.892Z,5.95
2018-12-05T13:30:43.208Z,6.95
2018-12-05T13:33:12.433Z,8.33
2018-12-05T13:35:41.694Z,6.55
2018-12-05T13:38:11.093Z,5.83
2018-12-05T13:40:40.381Z,7.10
2018-12-05T13:43:09.672Z,11.10
2018-12-05T13:45:38.967Z,5.90
2018-12-05T13:48:08.226Z,7.60
2018-12-05T13:50:37.451Z,5.80
2018-12-05T13:53:06.846Z,5.50
2018-12-05T13:58:15.453Z,5.92
2018-12-05T14:00:44.822Z,5.43
2018-12-05T14:03:14.123Z,4.70
2018-12-05T14:05:43.389Z,4.87
2018-12-05T14:08:12.906Z,7.60
2018-12-05T14:10:42.186Z,6.43
2018-12-05T14:13:11.448Z,5.30
2018-12-05T14:15:40.744Z,4.83
2018-12-05T14:18:10.019Z,5.53
2018-12-05T14:20:39.304Z,5.33
2018-12-05T14:23:08.561Z,7.93
2018-12-05T14:25:37.831Z,6.27
2018-12-05T14:28:07.233Z,7.53
2018-12-05T14:30:36.585Z,7.37
2018-12-05T14:33:05.858Z,6.05
2018-12-05T14:35:35.164Z,5.47
2018-12-05T14:38:04.435Z,7.87
2018-12-05T14:40:33.713Z,6.90
2018-12-05T14:43:03.007Z,7.90
2018-12-05T14:45:32.373Z,10.20
2018-12-05T14:48:01.770Z,8.03
2018-12-05T14:50:31.125Z,7.78
2018-12-05T14:53:00.497Z,6.97
2018-12-05T14:55:29.864Z,9.48
2018-12-05T14:57:59.140Z,8.78
2018-12-05T15:00:28.408Z,8.53
2018-12-05T15:02:57.696Z,14.43
2018-12-05T15:05:26.962Z,15.55
2018-12-05T15:07:56.232Z,14.68
2018-12-05T15:10:25.501Z,17.48
2018-12-05T15:12:54.785Z,13.62
2018-12-05T15:15:24.178Z,16.30
2018-12-05T15:17:53.457Z,20.02
2018-12-05T15:20:22.711Z,18.60
2018-12-05T15:22:51.990Z,17.25
2018-12-05T15:25:21.253Z,19.70
2018-12-05T15:27:50.695Z,16.65
2018-12-05T15:30:19.964Z,18.37
2018-12-05T15:32:49.234Z,17.12
2018-12-05T15:35:18.485Z,15.25
2018-12-05T15:37:47.752Z,18.75
2018-12-05T15:40:17.032Z,16.35
2018-12-05T15:42:46.445Z,15.43
2018-12-05T15:45:21.507Z,17.50
2018-12-05T15:47:46.982Z,16.80
2018-12-05T15:50:17.977Z,18.25
2018-12-05T15:52:47.481Z,15.83
2018-12-05T15:55:16.744Z,16.10
2018-12-05T15:57:45.977Z,14.63
2018-12-05T16:00:15.254Z,13.88
2018-12-05T16:02:44.622Z,14.55
2018-12-05T16:05:13.922Z,16.65
2018-12-05T16:07:43.262Z,14.53
2018-12-05T16:10:12.537Z,13.78
2018-12-05T16:12:41.782Z,16.65
2018-12-05T16:15:11.148Z,14.15
2018-12-05T16:17:40.397Z,22.70
2018-12-05T16:20:09.801Z,10.48
2018-12-05T16:22:39.087Z,15.38
2018-12-05T16:25:08.614Z,12.60
2018-12-05T16:27:37.853Z,10.68
2018-12-05T16:30:08.030Z,10.70
2018-12-05T16:32:37.305Z,10.75
2018-12-05T16:35:06.913Z,11.78
2018-12-05T16:37:36.194Z,10.68
2018-12-05T16:40:05.695Z,10.80
2018-12-05T16:42:34.988Z,8.85
2018-12-05T16:45:04.393Z,14.58
2018-12-05T16:47:33.715Z,10.95
2018-12-05T16:50:03.162Z,11.88
2018-12-05T16:52:32.437Z,10.95
2018-12-05T16:55:01.875Z,11.80
2018-12-05T16:57:31.311Z,9.75
2018-12-05T17:00:00.602Z,12.10
2018-12-05T17:02:29.901Z,11.40
2018-12-05T17:04:59.251Z,10.00
2018-12-05T17:07:28.670Z,9.43
2018-12-05T17:09:58.061Z,9.35
2018-12-05T17:12:27.332Z,8.30
2018-12-05T17:14:56.930Z,9.15
2018-12-05T17:17:26.214Z,9.75
2018-12-05T17:19:55.483Z,10.32
2018-12-05T17:22:24.774Z,9.23
2018-12-05T17:24:55.539Z,9.45
2018-12-05T17:27:24.999Z,8.48
2018-12-05T17:29:54.261Z,12.35
2018-12-05T17:32:23.613Z,8.18
2018-12-05T17:34:52.904Z,8.93
2018-12-05T17:37:22.186Z,11.80
2018-12-05T17:39:51.488Z,9.45
2018-12-05T17:42:22.027Z,8.38
2018-12-05T17:44:51.485Z,10.05
2018-12-05T17:47:20.898Z,8.40
2018-12-05T17:49:50.369Z,7.72
2018-12-05T17:52:19.651Z,8.88
2018-12-05T17:54:48.894Z,8.75
2018-12-05T17:57:18.124Z,8.38
2018-12-05T17:59:47.410Z,9.48
2018-12-05T18:02:16.657Z,9.63
2018-12-05T18:04:45.908Z,12.15
2018-12-05T18:07:15.291Z,9.65
2018-12-05T18:09:44.560Z,8.30
2018-12-05T18:12:13.805Z,8.20
2018-12-05T18:14:43.097Z,8.33
2018-12-05T18:17:12.377Z,9.50
2018-12-05T18:19:41.697Z,8.78
2018-12-05T18:22:10.982Z,9.80
2018-12-05T18:24:40.283Z,10.08
2018-12-05T18:27:09.574Z,8.35
2018-12-05T18:29:38.871Z,10.15
2018-12-05T18:32:08.175Z,8.90
2018-12-05T18:34:37.489Z,9.45
2018-12-05T18:37:07.011Z,9.38
2018-12-05T18:39:36.294Z,8.68
2018-12-05T18:42:05.641Z,11.12
2018-12-05T18:44:34.879Z,9.18
2018-12-05T18:47:04.250Z,7.00
2018-12-05T18:49:33.499Z,10.25
2018-12-05T18:52:02.781Z,12.15
2018-12-05T18:54:32.033Z,10.25
2018-12-05T18:57:01.396Z,9.38
2018-12-05T18:59:32.757Z,11.53
2018-12-05T19:02:02.066Z,8.65
2018-12-05T19:04:31.365Z,7.75
2018-12-05T19:07:00.668Z,11.48
2018-12-05T19:09:29.970Z,9.70
2018-12-05T19:11:59.409Z,13.75
2018-12-05T19:14:33.842Z,19.77
2018-12-05T19:17:03.165Z,21.40
2018-12-05T19:19:32.489Z,14.07
2018-12-05T19:22:01.818Z,10.78
2018-12-05T19:24:31.074Z,10.25
2018-12-05T19:27:00.413Z,10.43
2018-12-05T19:29:29.858Z,11.55
2018-12-05T19:31:59.095Z,13.83
2018-12-05T19:34:28.420Z,12.75
2018-12-05T19:36:57.750Z,12.20
2018-12-05T19:39:27.088Z,8.70
2018-12-05T19:41:56.353Z,11.43
2018-12-05T19:44:25.677Z,11.70
2018-12-05T19:46:54.924Z,12.90
2018-12-05T19:49:24.195Z,12.70
2018-12-05T19:51:53.484Z,13.60
2018-12-05T19:54:22.801Z,12.00
2018-12-05T19:56:52.078Z,11.90
2018-12-05T19:59:21.386Z,13.45
2018-12-05T20:01:50.648Z,12.75
2018-12-05T20:04:20.054Z,13.93
2018-12-05T20:06:49.352Z,11.78
2018-12-05T20:09:18.655Z,11.55
2018-12-05T20:11:47.969Z,13.68
2018-12-05T20:14:22.462Z,12.25
2018-12-05T20:16:51.712Z,13.60
2018-12-05T20:19:20.984Z,11.50
2018-12-05T20:21:50.360Z,10.90
2018-12-05T20:24:19.630Z,13.48
2018-12-05T20:26:48.923Z,17.02
2018-12-05T20:29:18.219Z,14.43
2018-12-05T20:31:47.622Z,13.08
2018-12-05T20:34:16.903Z,13.72
2018-12-05T20:36:46.336Z,12.50
2018-12-05T20:39:15.630Z,11.65
2018-12-05T20:41:44.973Z,15.13
2018-12-05T20:44:14.241Z,12.03
2018-12-05T20:46:43.532Z,12.75
2018-12-05T20:49:12.840Z,13.58
2018-12-05T20:51:42.123Z,13.45
2018-12-05T20:54:11.419Z,13.35
2018-12-05T20:56:40.720Z,14.60
2018-12-05T20:59:10.113Z,13.08
2018-12-05T21:01:39.469Z,12.25
2018-12-05T21:04:08.952Z,13.83
2018-12-05T21:06:38.233Z,15.35
2018-12-05T21:09:09.054Z,13.43
2018-12-05T21:11:39.449Z,14.45
2018-12-05T21:14:09.124Z,13.80
2018-12-05T21:16:38.562Z,11.80
2018-12-05T21:19:07.972Z,13.60
2018-12-05T21:21:37.279Z,14.63
2018-12-05T21:24:08.226Z,15.13
2018-12-05T21:26:37.762Z,26.10
2018-12-05T21:29:07.110Z,21.07
2018-12-05T21:31:36.380Z,13.38
2018-12-05T21:34:05.694Z,14.98
2018-12-05T21:36:35.072Z,13.83
2018-12-05T21:39:07.379Z,11.65
2018-12-05T21:41:37.014Z,15.35
2018-12-05T21:44:06.375Z,16.62
2018-12-05T21:46:35.645Z,22.48
2018-12-05T21:49:05.109Z,13.55
2018-12-05T21:51:34.451Z,18.17
2018-12-05T21:54:03.952Z,15.90
2018-12-05T21:56:33.391Z,16.17
2018-12-05T21:59:02.762Z,15.58
2018-12-05T22:01:32.052Z,17.05
2018-12-05T22:04:01.402Z,19.23
2018-12-05T22:06:30.724Z,17.32
2018-12-05T22:09:00.003Z,21.65
2018-12-05T22:11:29.356Z,22.77
2018-12-05T22:13:58.596Z,12.45
2018-12-05T22:16:27.907Z,19.05
2018-12-05T22:18:57.313Z,13.80
2018-12-05T22:21:26.620Z,13.90
2018-12-05T22:23:55.945Z,15.35
2018-12-05T22:26:25.464Z,17.57
2018-12-05T22:28:54.718Z,13.53
2018-12-05T22:31:24.021Z,13.32
2018-12-05T22:33:53.307Z,13.25
2018-12-05T22:36:22.572Z,14.73
2018-12-05T22:38:51.807Z,13.60
2018-12-05T22:41:21.086Z,13.58
2018-12-05T22:43:50.360Z,10.88
2018-12-05T22:46:19.807Z,11.30
2018-12-05T22:48:49.110Z,10.08
2018-12-05T22:51:18.404Z,11.88
2018-12-05T22:53:47.676Z,10.28
2018-12-05T22:56:16.967Z,36.33
2018-12-05T22:58:46.248Z,9.90
2018-12-05T23:01:15.545Z,9.70
2018-12-05T23:03:44.840Z,12.82
2018-12-05T23:06:14.093Z,13.30
2018-12-05T23:08:43.458Z,11.53
2018-12-05T23:11:12.746Z,11.12
2018-12-05T23:13:42.029Z,10.38
2018-12-05T23:16:11.335Z,10.32
2018-12-05T23:18:40.661Z,10.82
2018-12-05T23:21:10.023Z,12.13
2018-12-05T23:23:39.293Z,11.20
2018-12-05T23:26:08.573Z,10.58
2018-12-05T23:28:37.830Z,11.05
2018-12-05T23:31:07.081Z,11.95
2018-12-05T23:33:36.389Z,13.50
2018-12-05T23:36:05.673Z,14.65
2018-12-05T23:38:34.937Z,13.15
2018-12-05T23:41:04.241Z,12.82
2018-12-05T23:43:33.494Z,11.18
2018-12-05T23:46:02.905Z,9.43
2018-12-05T23:48:32.136Z,12.50
2018-12-05T23:51:01.445Z,11.85
2018-12-05T23:53:30.685Z,12.15
2018-12-05T23:55:59.953Z,12.85
2018-12-05T23:58:29.218Z,15.18
